sensor_id;sensor_type;location;lat;lon;timestamp;P1;durP1;ratioP1;P2;durP2;ratioP2
17214;SDS011;8723;51.502;6.918;2023-09-19T00:00:16;7.95;;;3.00;;
17214;SDS011;8723;51.502;6.918;2023-09-19T00:02:45;7.20;;;3.10;;
17214;SDS011;8723;51.502;6.918;2023-09-19T00:05:13;7.13;;;3.15;;
17214;SDS011;8723;51.502;6.918;2023-09-19T00:07:40;6.97;;;2.97;;
17214;SDS011;8723;51.502;6.918;2023-09-19T00:10:07;7.53;;;3.05;;
17214;SDS011;8723;51.502;6.918;2023-09-19T00:12:35;5.97;;;2.80;;
17214;SDS011;8723;51.502;6.918;2023-09-19T00:15:02;8.40;;;3.50;;
17214;SDS011;8723;51.502;6.918;2023-09-19T00:17:31;7.50;;;3.10;;
17214;SDS011;8723;51.502;6.918;2023-09-19T00:20:01;8.48;;;2.90;;
17214;SDS011;8723;51.502;6.918;2023-09-19T00:22:32;6.97;;;3.10;;
17214;SDS011;8723;51.502;6.918;2023-09-19T00:24:59;9.25;;;2.88;;
17214;SDS011;8723;51.502;6.918;2023-09-19T00:27:26;7.38;;;2.63;;
17214;SDS011;8723;51.502;6.918;2023-09-19T00:29:54;7.38;;;2.60;;
17214;SDS011;8723;51.502;6.918;2023-09-19T00:32:21;7.50;;;2.83;;
17214;SDS011;8723;51.502;6.918;2023-09-19T00:34:48;8.10;;;2.78;;
17214;SDS011;8723;51.502;6.918;2023-09-19T00:37:16;9.48;;;3.00;;
17214;SDS011;8723;51.502;6.918;2023-09-19T00:39:43;6.28;;;2.75;;
17214;SDS011;8723;51.502;6.918;2023-09-19T00:42:17;6.65;;;2.40;;
17214;SDS011;8723;51.502;6.918;2023-09-19T00:44:45;6.30;;;3.00;;
17214;SDS011;8723;51.502;6.918;2023-09-19T00:47:12;9.23;;;3.20;;
17214;SDS011;8723;51.502;6.918;2023-09-19T00:49:44;8.57;;;3.38;;
17214;SDS011;8723;51.502;6.918;2023-09-19T00:52:16;6.28;;;3.10;;
17214;SDS011;8723;51.502;6.918;2023-09-19T00:54:45;10.57;;;3.42;;
17214;SDS011;8723;51.502;6.918;2023-09-19T00:57:12;9.50;;;3.00;;
17214;SDS011;8723;51.502;6.918;2023-09-19T00:59:40;7.18;;;2.80;;
17214;SDS011;8723;51.502;6.918;2023-09-19T01:02:08;8.98;;;2.97;;
17214;SDS011;8723;51.502;6.918;2023-09-19T01:04:35;8.63;;;3.25;;
17214;SDS011;8723;51.502;6.918;2023-09-19T01:07:03;9.37;;;3.13;;
17214;SDS011;8723;51.502;6.918;2023-09-19T01:09:31;8.00;;;2.77;;
17214;SDS011;8723;51.502;6.918;2023-09-19T01:12:01;9.00;;;3.45;;
17214;SDS011;8723;51.502;6.918;2023-09-19T01:14:33;9.77;;;3.23;;
17214;SDS011;8723;51.502;6.918;2023-09-19T01:17:09;11.13;;;3.38;;
17214;SDS011;8723;51.502;6.918;2023-09-19T01:22:42;8.35;;;3.10;;
17214;SDS011;8723;51.502;6.918;2023-09-19T01:28:24;9.25;;;3.10;;
17214;SDS011;8723;51.502;6.918;2023-09-19T01:31:03;11.00;;;3.13;;
17214;SDS011;8723;51.502;6.918;2023-09-19T01:36:24;9.95;;;3.20;;
17214;SDS011;8723;51.502;6.918;2023-09-19T01:38:55;9.20;;;3.38;;
17214;SDS011;8723;51.502;6.918;2023-09-19T01:41:26;9.40;;;2.97;;
17214;SDS011;8723;51.502;6.918;2023-09-19T01:44:06;9.13;;;3.07;;
17214;SDS011;8723;51.502;6.918;2023-09-19T01:46:41;9.10;;;3.20;;
17214;SDS011;8723;51.502;6.918;2023-09-19T01:49:16;7.15;;;3.08;;
17214;SDS011;8723;51.502;6.918;2023-09-19T01:51:52;7.13;;;3.00;;
17214;SDS011;8723;51.502;6.918;2023-09-19T01:54:32;9.30;;;2.90;;
17214;SDS011;8723;51.502;6.918;2023-09-19T01:57:09;9.98;;;3.17;;
17214;SDS011;8723;51.502;6.918;2023-09-19T01:59:45;8.38;;;3.10;;
17214;SDS011;8723;51.502;6.918;2023-09-19T02:02:21;8.13;;;3.08;;
17214;SDS011;8723;51.502;6.918;2023-09-19T02:04:53;7.78;;;3.17;;
17214;SDS011;8723;51.502;6.918;2023-09-19T02:07:24;9.48;;;3.47;;
17214;SDS011;8723;51.502;6.918;2023-09-19T02:09:54;8.67;;;3.37;;
17214;SDS011;8723;51.502;6.918;2023-09-19T02:12:21;8.18;;;3.47;;
17214;SDS011;8723;51.502;6.918;2023-09-19T02:14:48;11.10;;;3.67;;
17214;SDS011;8723;51.502;6.918;2023-09-19T02:17:18;10.48;;;3.65;;
17214;SDS011;8723;51.502;6.918;2023-09-19T02:19:52;9.63;;;3.63;;
17214;SDS011;8723;51.502;6.918;2023-09-19T02:22:22;8.52;;;3.63;;
17214;SDS011;8723;51.502;6.918;2023-09-19T02:24:51;9.15;;;3.63;;
17214;SDS011;8723;51.502;6.918;2023-09-19T02:27:19;9.70;;;3.85;;
17214;SDS011;8723;51.502;6.918;2023-09-19T02:29:49;9.40;;;3.70;;
17214;SDS011;8723;51.502;6.918;2023-09-19T02:32:18;12.13;;;4.03;;
17214;SDS011;8723;51.502;6.918;2023-09-19T02:34:48;10.88;;;3.95;;
17214;SDS011;8723;51.502;6.918;2023-09-19T02:37:18;10.70;;;3.60;;
17214;SDS011;8723;51.502;6.918;2023-09-19T02:39:45;9.45;;;3.80;;
17214;SDS011;8723;51.502;6.918;2023-09-19T02:42:12;10.20;;;3.53;;
17214;SDS011;8723;51.502;6.918;2023-09-19T02:44:39;9.35;;;3.85;;
17214;SDS011;8723;51.502;6.918;2023-09-19T02:47:06;10.45;;;3.80;;
17214;SDS011;8723;51.502;6.918;2023-09-19T02:49:34;9.88;;;3.80;;
17214;SDS011;8723;51.502;6.918;2023-09-19T02:52:01;9.90;;;3.95;;
17214;SDS011;8723;51.502;6.918;2023-09-19T02:54:29;8.52;;;3.70;;
17214;SDS011;8723;51.502;6.918;2023-09-19T02:56:56;8.35;;;3.45;;
17214;SDS011;8723;51.502;6.918;2023-09-19T02:59:24;12.65;;;3.63;;
17214;SDS011;8723;51.502;6.918;2023-09-19T03:01:51;9.73;;;3.63;;
17214;SDS011;8723;51.502;6.918;2023-09-19T03:04:19;8.20;;;3.53;;
17214;SDS011;8723;51.502;6.918;2023-09-19T03:06:47;8.95;;;3.67;;
17214;SDS011;8723;51.502;6.918;2023-09-19T03:09:16;9.82;;;3.55;;
17214;SDS011;8723;51.502;6.918;2023-09-19T03:11:44;10.47;;;3.60;;
17214;SDS011;8723;51.502;6.918;2023-09-19T03:14:11;8.30;;;3.43;;
17214;SDS011;8723;51.502;6.918;2023-09-19T03:16:39;10.05;;;3.45;;
17214;SDS011;8723;51.502;6.918;2023-09-19T03:19:07;11.18;;;3.83;;
17214;SDS011;8723;51.502;6.918;2023-09-19T03:21:35;8.80;;;3.38;;
17214;SDS011;8723;51.502;6.918;2023-09-19T03:24:05;9.13;;;3.45;;
17214;SDS011;8723;51.502;6.918;2023-09-19T03:26:32;8.35;;;2.97;;
17214;SDS011;8723;51.502;6.918;2023-09-19T03:28:59;8.43;;;3.20;;
17214;SDS011;8723;51.502;6.918;2023-09-19T03:31:31;8.30;;;3.15;;
17214;SDS011;8723;51.502;6.918;2023-09-19T03:33:58;7.70;;;3.35;;
17214;SDS011;8723;51.502;6.918;2023-09-19T03:36:25;7.43;;;2.90;;
17214;SDS011;8723;51.502;6.918;2023-09-19T03:38:54;7.47;;;2.97;;
17214;SDS011;8723;51.502;6.918;2023-09-19T03:41:22;10.27;;;3.10;;
17214;SDS011;8723;51.502;6.918;2023-09-19T03:43:49;10.13;;;3.53;;
17214;SDS011;8723;51.502;6.918;2023-09-19T03:46:16;9.10;;;3.40;;
17214;SDS011;8723;51.502;6.918;2023-09-19T03:48:43;7.75;;;3.22;;
17214;SDS011;8723;51.502;6.918;2023-09-19T03:51:10;8.57;;;2.97;;
17214;SDS011;8723;51.502;6.918;2023-09-19T03:53:36;8.40;;;2.97;;
17214;SDS011;8723;51.502;6.918;2023-09-19T03:56:03;8.80;;;3.08;;
17214;SDS011;8723;51.502;6.918;2023-09-19T03:58:31;8.35;;;3.20;;
17214;SDS011;8723;51.502;6.918;2023-09-19T04:01:00;9.68;;;3.30;;
17214;SDS011;8723;51.502;6.918;2023-09-19T04:03:26;8.63;;;2.90;;
17214;SDS011;8723;51.502;6.918;2023-09-19T04:06:00;10.38;;;3.15;;
17214;SDS011;8723;51.502;6.918;2023-09-19T04:08:27;8.38;;;3.20;;
17214;SDS011;8723;51.502;6.918;2023-09-19T04:10:54;10.07;;;2.97;;
17214;SDS011;8723;51.502;6.918;2023-09-19T04:13:21;10.77;;;3.10;;
17214;SDS011;8723;51.502;6.918;2023-09-19T04:15:50;7.95;;;3.10;;
17214;SDS011;8723;51.502;6.918;2023-09-19T04:18:16;8.45;;;3.00;;
17214;SDS011;8723;51.502;6.918;2023-09-19T04:20:47;9.57;;;3.13;;
17214;SDS011;8723;51.502;6.918;2023-09-19T04:23:14;8.13;;;2.83;;
17214;SDS011;8723;51.502;6.918;2023-09-19T04:25:41;7.70;;;2.80;;
17214;SDS011;8723;51.502;6.918;2023-09-19T04:28:08;7.90;;;2.92;;
17214;SDS011;8723;51.502;6.918;2023-09-19T04:30:36;6.85;;;2.70;;
17214;SDS011;8723;51.502;6.918;2023-09-19T04:33:04;7.50;;;2.92;;
17214;SDS011;8723;51.502;6.918;2023-09-19T04:35:31;7.50;;;2.97;;
17214;SDS011;8723;51.502;6.918;2023-09-19T04:37:59;9.32;;;3.00;;
17214;SDS011;8723;51.502;6.918;2023-09-19T04:40:26;6.70;;;3.15;;
17214;SDS011;8723;51.502;6.918;2023-09-19T04:42:55;7.65;;;3.38;;
17214;SDS011;8723;51.502;6.918;2023-09-19T04:45:22;7.60;;;3.30;;
17214;SDS011;8723;51.502;6.918;2023-09-19T04:47:49;10.68;;;3.65;;
17214;SDS011;8723;51.502;6.918;2023-09-19T04:50:17;8.77;;;3.50;;
17214;SDS011;8723;51.502;6.918;2023-09-19T04:52:48;10.52;;;3.63;;
17214;SDS011;8723;51.502;6.918;2023-09-19T04:55:16;9.30;;;3.42;;
17214;SDS011;8723;51.502;6.918;2023-09-19T04:57:44;11.05;;;3.55;;
17214;SDS011;8723;51.502;6.918;2023-09-19T05:00:12;8.60;;;3.45;;
17214;SDS011;8723;51.502;6.918;2023-09-19T05:02:39;11.23;;;3.47;;
17214;SDS011;8723;51.502;6.918;2023-09-19T05:05:07;8.63;;;3.67;;
17214;SDS011;8723;51.502;6.918;2023-09-19T05:07:36;9.55;;;3.83;;
17214;SDS011;8723;51.502;6.918;2023-09-19T05:10:03;8.40;;;3.97;;
17214;SDS011;8723;51.502;6.918;2023-09-19T05:12:32;9.67;;;4.07;;
17214;SDS011;8723;51.502;6.918;2023-09-19T05:14:59;9.15;;;3.67;;
17214;SDS011;8723;51.502;6.918;2023-09-19T05:17:27;8.90;;;3.70;;
17214;SDS011;8723;51.502;6.918;2023-09-19T05:19:54;9.20;;;4.05;;
17214;SDS011;8723;51.502;6.918;2023-09-19T05:22:21;11.13;;;4.25;;
17214;SDS011;8723;51.502;6.918;2023-09-19T05:24:51;9.65;;;4.00;;
17214;SDS011;8723;51.502;6.918;2023-09-19T05:27:18;8.70;;;3.90;;
17214;SDS011;8723;51.502;6.918;2023-09-19T05:29:46;9.23;;;3.80;;
17214;SDS011;8723;51.502;6.918;2023-09-19T05:32:15;11.57;;;3.97;;
17214;SDS011;8723;51.502;6.918;2023-09-19T05:34:44;11.45;;;3.65;;
17214;SDS011;8723;51.502;6.918;2023-09-19T05:37:12;9.30;;;3.47;;
17214;SDS011;8723;51.502;6.918;2023-09-19T05:39:40;8.70;;;3.50;;
17214;SDS011;8723;51.502;6.918;2023-09-19T05:42:08;9.20;;;3.35;;
17214;SDS011;8723;51.502;6.918;2023-09-19T05:44:35;9.23;;;3.13;;
17214;SDS011;8723;51.502;6.918;2023-09-19T05:47:02;9.90;;;3.45;;
17214;SDS011;8723;51.502;6.918;2023-09-19T05:49:30;13.48;;;3.90;;
17214;SDS011;8723;51.502;6.918;2023-09-19T05:51:56;9.52;;;3.50;;
17214;SDS011;8723;51.502;6.918;2023-09-19T05:54:24;7.10;;;3.10;;
17214;SDS011;8723;51.502;6.918;2023-09-19T05:56:51;9.80;;;3.40;;
17214;SDS011;8723;51.502;6.918;2023-09-19T05:59:19;9.65;;;3.30;;
17214;SDS011;8723;51.502;6.918;2023-09-19T06:01:47;11.27;;;3.83;;
17214;SDS011;8723;51.502;6.918;2023-09-19T06:04:14;9.35;;;3.20;;
17214;SDS011;8723;51.502;6.918;2023-09-19T06:06:41;9.80;;;3.60;;
17214;SDS011;8723;51.502;6.918;2023-09-19T06:09:08;7.60;;;3.40;;
17214;SDS011;8723;51.502;6.918;2023-09-19T06:11:35;10.00;;;3.63;;
17214;SDS011;8723;51.502;6.918;2023-09-19T06:14:02;9.25;;;3.60;;
17214;SDS011;8723;51.502;6.918;2023-09-19T06:16:31;12.55;;;3.70;;
17214;SDS011;8723;51.502;6.918;2023-09-19T06:18:58;8.77;;;3.42;;
17214;SDS011;8723;51.502;6.918;2023-09-19T06:21:24;9.57;;;3.50;;
17214;SDS011;8723;51.502;6.918;2023-09-19T06:23:52;7.55;;;3.17;;
17214;SDS011;8723;51.502;6.918;2023-09-19T06:26:19;8.13;;;3.40;;
17214;SDS011;8723;51.502;6.918;2023-09-19T06:28:46;10.07;;;3.50;;
17214;SDS011;8723;51.502;6.918;2023-09-19T06:31:13;9.32;;;3.63;;
17214;SDS011;8723;51.502;6.918;2023-09-19T06:33:41;9.07;;;3.15;;
17214;SDS011;8723;51.502;6.918;2023-09-19T06:36:08;9.13;;;3.53;;
17214;SDS011;8723;51.502;6.918;2023-09-19T06:38:35;7.95;;;3.20;;
17214;SDS011;8723;51.502;6.918;2023-09-19T06:41:02;9.52;;;3.20;;
17214;SDS011;8723;51.502;6.918;2023-09-19T06:43:30;9.73;;;3.50;;
17214;SDS011;8723;51.502;6.918;2023-09-19T06:45:57;12.27;;;3.17;;
17214;SDS011;8723;51.502;6.918;2023-09-19T06:48:25;6.13;;;2.88;;
17214;SDS011;8723;51.502;6.918;2023-09-19T06:50:55;8.05;;;2.90;;
17214;SDS011;8723;51.502;6.918;2023-09-19T06:53:23;8.20;;;3.03;;
17214;SDS011;8723;51.502;6.918;2023-09-19T06:55:50;11.32;;;3.55;;
17214;SDS011;8723;51.502;6.918;2023-09-19T06:58:17;7.07;;;3.00;;
17214;SDS011;8723;51.502;6.918;2023-09-19T07:00:44;9.43;;;3.20;;
17214;SDS011;8723;51.502;6.918;2023-09-19T07:03:12;8.93;;;3.00;;
17214;SDS011;8723;51.502;6.918;2023-09-19T07:05:41;8.52;;;3.38;;
17214;SDS011;8723;51.502;6.918;2023-09-19T07:08:10;10.80;;;3.50;;
17214;SDS011;8723;51.502;6.918;2023-09-19T07:10:37;10.23;;;3.50;;
17214;SDS011;8723;51.502;6.918;2023-09-19T07:13:06;11.70;;;3.57;;
17214;SDS011;8723;51.502;6.918;2023-09-19T07:15:35;11.55;;;4.07;;
17214;SDS011;8723;51.502;6.918;2023-09-19T07:18:04;10.30;;;3.85;;
17214;SDS011;8723;51.502;6.918;2023-09-19T07:20:32;10.52;;;3.70;;
17214;SDS011;8723;51.502;6.918;2023-09-19T07:22:59;10.98;;;3.67;;
17214;SDS011;8723;51.502;6.918;2023-09-19T07:25:28;9.75;;;3.15;;
17214;SDS011;8723;51.502;6.918;2023-09-19T07:27:55;9.32;;;3.38;;
17214;SDS011;8723;51.502;6.918;2023-09-19T07:30:25;11.45;;;4.10;;
17214;SDS011;8723;51.502;6.918;2023-09-19T07:32:52;10.75;;;3.67;;
17214;SDS011;8723;51.502;6.918;2023-09-19T07:35:19;7.47;;;3.20;;
17214;SDS011;8723;51.502;6.918;2023-09-19T07:37:46;13.07;;;4.03;;
17214;SDS011;8723;51.502;6.918;2023-09-19T07:40:14;10.45;;;3.55;;
17214;SDS011;8723;51.502;6.918;2023-09-19T07:42:42;10.10;;;3.63;;
17214;SDS011;8723;51.502;6.918;2023-09-19T07:45:11;9.60;;;4.25;;
17214;SDS011;8723;51.502;6.918;2023-09-19T07:47:43;12.23;;;3.95;;
17214;SDS011;8723;51.502;6.918;2023-09-19T07:50:11;12.18;;;3.90;;
17214;SDS011;8723;51.502;6.918;2023-09-19T07:52:38;9.88;;;3.80;;
17214;SDS011;8723;51.502;6.918;2023-09-19T07:55:05;10.60;;;3.80;;
17214;SDS011;8723;51.502;6.918;2023-09-19T07:57:35;9.53;;;3.43;;
17214;SDS011;8723;51.502;6.918;2023-09-19T08:00:04;10.93;;;3.90;;
17214;SDS011;8723;51.502;6.918;2023-09-19T08:02:33;12.35;;;3.90;;
17214;SDS011;8723;51.502;6.918;2023-09-19T08:05:03;11.13;;;3.50;;
17214;SDS011;8723;51.502;6.918;2023-09-19T08:07:31;9.38;;;3.60;;
17214;SDS011;8723;51.502;6.918;2023-09-19T08:09:58;8.63;;;3.58;;
17214;SDS011;8723;51.502;6.918;2023-09-19T08:12:25;9.88;;;3.47;;
17214;SDS011;8723;51.502;6.918;2023-09-19T08:14:52;10.07;;;3.53;;
17214;SDS011;8723;51.502;6.918;2023-09-19T08:17:21;8.23;;;3.30;;
17214;SDS011;8723;51.502;6.918;2023-09-19T08:19:48;9.35;;;3.42;;
17214;SDS011;8723;51.502;6.918;2023-09-19T08:22:17;9.57;;;3.45;;
17214;SDS011;8723;51.502;6.918;2023-09-19T08:24:44;10.70;;;3.10;;
17214;SDS011;8723;51.502;6.918;2023-09-19T08:27:13;7.97;;;3.17;;
17214;SDS011;8723;51.502;6.918;2023-09-19T08:29:40;13.63;;;3.30;;
17214;SDS011;8723;51.502;6.918;2023-09-19T08:32:07;9.80;;;3.57;;
17214;SDS011;8723;51.502;6.918;2023-09-19T08:34:35;11.18;;;3.50;;
17214;SDS011;8723;51.502;6.918;2023-09-19T08:37:03;8.73;;;3.20;;
17214;SDS011;8723;51.502;6.918;2023-09-19T08:39:30;11.73;;;3.63;;
17214;SDS011;8723;51.502;6.918;2023-09-19T08:41:58;10.35;;;3.33;;
17214;SDS011;8723;51.502;6.918;2023-09-19T08:44:26;9.32;;;3.60;;
17214;SDS011;8723;51.502;6.918;2023-09-19T08:46:55;10.10;;;3.65;;
17214;SDS011;8723;51.502;6.918;2023-09-19T08:49:33;10.40;;;3.28;;
17214;SDS011;8723;51.502;6.918;2023-09-19T08:52:10;7.57;;;3.10;;
17214;SDS011;8723;51.502;6.918;2023-09-19T08:54:46;11.60;;;3.25;;
17214;SDS011;8723;51.502;6.918;2023-09-19T08:57:17;9.07;;;3.10;;
17214;SDS011;8723;51.502;6.918;2023-09-19T08:59:47;13.00;;;3.40;;
17214;SDS011;8723;51.502;6.918;2023-09-19T09:02:15;9.15;;;3.13;;
17214;SDS011;8723;51.502;6.918;2023-09-19T09:04:43;9.98;;;3.47;;
17214;SDS011;8723;51.502;6.918;2023-09-19T09:07:13;10.82;;;3.55;;
17214;SDS011;8723;51.502;6.918;2023-09-19T09:09:41;7.10;;;3.30;;
17214;SDS011;8723;51.502;6.918;2023-09-19T09:12:10;9.95;;;3.35;;
17214;SDS011;8723;51.502;6.918;2023-09-19T09:14:39;10.00;;;3.65;;
17214;SDS011;8723;51.502;6.918;2023-09-19T09:17:06;6.65;;;3.00;;
17214;SDS011;8723;51.502;6.918;2023-09-19T09:19:33;8.48;;;3.22;;
17214;SDS011;8723;51.502;6.918;2023-09-19T09:22:07;9.75;;;3.30;;
17214;SDS011;8723;51.502;6.918;2023-09-19T09:24:36;8.13;;;3.30;;
17214;SDS011;8723;51.502;6.918;2023-09-19T09:27:05;10.70;;;3.25;;
17214;SDS011;8723;51.502;6.918;2023-09-19T09:29:41;10.02;;;3.00;;
17214;SDS011;8723;51.502;6.918;2023-09-19T09:32:22;9.43;;;3.57;;
17214;SDS011;8723;51.502;6.918;2023-09-19T09:34:50;8.80;;;3.15;;
17214;SDS011;8723;51.502;6.918;2023-09-19T09:37:19;9.63;;;3.28;;
17214;SDS011;8723;51.502;6.918;2023-09-19T09:39:52;8.18;;;3.13;;
17214;SDS011;8723;51.502;6.918;2023-09-19T09:42:31;9.68;;;3.10;;
17214;SDS011;8723;51.502;6.918;2023-09-19T09:45:16;9.68;;;3.35;;
17214;SDS011;8723;51.502;6.918;2023-09-19T09:47:45;9.52;;;2.97;;
17214;SDS011;8723;51.502;6.918;2023-09-19T09:50:27;8.38;;;3.05;;
17214;SDS011;8723;51.502;6.918;2023-09-19T09:53:02;9.20;;;2.87;;
17214;SDS011;8723;51.502;6.918;2023-09-19T09:55:41;9.73;;;3.28;;
17214;SDS011;8723;51.502;6.918;2023-09-19T09:58:24;8.30;;;3.00;;
17214;SDS011;8723;51.502;6.918;2023-09-19T10:00:54;8.00;;;3.10;;
17214;SDS011;8723;51.502;6.918;2023-09-19T10:03:24;9.05;;;3.25;;
17214;SDS011;8723;51.502;6.918;2023-09-19T10:05:58;9.95;;;3.08;;
17214;SDS011;8723;51.502;6.918;2023-09-19T10:08:34;6.77;;;3.03;;
17214;SDS011;8723;51.502;6.918;2023-09-19T10:11:03;8.75;;;2.97;;
17214;SDS011;8723;51.502;6.918;2023-09-19T10:13:42;9.52;;;2.97;;
17214;SDS011;8723;51.502;6.918;2023-09-19T10:16:12;8.07;;;3.28;;
17214;SDS011;8723;51.502;6.918;2023-09-19T10:18:44;8.73;;;3.08;;
17214;SDS011;8723;51.502;6.918;2023-09-19T10:21:14;11.85;;;3.25;;
17214;SDS011;8723;51.502;6.918;2023-09-19T10:23:47;9.98;;;3.47;;
17214;SDS011;8723;51.502;6.918;2023-09-19T10:26:18;8.18;;;3.20;;
17214;SDS011;8723;51.502;6.918;2023-09-19T10:28:46;9.45;;;3.25;;
17214;SDS011;8723;51.502;6.918;2023-09-19T10:31:17;8.27;;;3.15;;
17214;SDS011;8723;51.502;6.918;2023-09-19T10:33:46;8.43;;;2.97;;
17214;SDS011;8723;51.502;6.918;2023-09-19T10:36:15;8.18;;;3.42;;
17214;SDS011;8723;51.502;6.918;2023-09-19T10:38:44;9.88;;;3.20;;
17214;SDS011;8723;51.502;6.918;2023-09-19T10:41:15;7.43;;;3.05;;
17214;SDS011;8723;51.502;6.918;2023-09-19T10:43:45;5.35;;;2.78;;
17214;SDS011;8723;51.502;6.918;2023-09-19T10:46:14;8.83;;;3.00;;
17214;SDS011;8723;51.502;6.918;2023-09-19T10:48:41;5.10;;;2.72;;
17214;SDS011;8723;51.502;6.918;2023-09-19T10:51:14;9.03;;;2.83;;
17214;SDS011;8723;51.502;6.918;2023-09-19T10:53:45;6.47;;;2.58;;
17214;SDS011;8723;51.502;6.918;2023-09-19T10:56:18;8.18;;;3.00;;
17214;SDS011;8723;51.502;6.918;2023-09-19T10:58:49;8.05;;;3.00;;
17214;SDS011;8723;51.502;6.918;2023-09-19T11:01:16;10.82;;;3.22;;
17214;SDS011;8723;51.502;6.918;2023-09-19T11:03:43;6.60;;;3.17;;
17214;SDS011;8723;51.502;6.918;2023-09-19T11:06:11;5.80;;;2.60;;
17214;SDS011;8723;51.502;6.918;2023-09-19T11:08:51;5.18;;;2.42;;
17214;SDS011;8723;51.502;6.918;2023-09-19T11:11:38;4.30;;;2.40;;
17214;SDS011;8723;51.502;6.918;2023-09-19T11:25:49;6.90;;;3.05;;
17214;SDS011;8723;51.502;6.918;2023-09-19T11:28:29;6.90;;;2.72;;
17214;SDS011;8723;51.502;6.918;2023-09-19T11:30:59;7.70;;;2.90;;
17214;SDS011;8723;51.502;6.918;2023-09-19T11:40:27;8.48;;;2.95;;
17214;SDS011;8723;51.502;6.918;2023-09-19T11:42:55;7.75;;;2.92;;
17214;SDS011;8723;51.502;6.918;2023-09-19T11:48:31;8.18;;;3.17;;
17214;SDS011;8723;51.502;6.918;2023-09-19T11:51:00;5.05;;;2.67;;
17214;SDS011;8723;51.502;6.918;2023-09-19T11:53:32;5.82;;;2.65;;
17214;SDS011;8723;51.502;6.918;2023-09-19T11:56:01;7.97;;;3.00;;
17214;SDS011;8723;51.502;6.918;2023-09-19T11:58:28;6.72;;;2.60;;
17214;SDS011;8723;51.502;6.918;2023-09-19T12:00:56;7.63;;;2.70;;
17214;SDS011;8723;51.502;6.918;2023-09-19T12:03:29;6.63;;;2.60;;
17214;SDS011;8723;51.502;6.918;2023-09-19T12:05:59;7.75;;;2.80;;
17214;SDS011;8723;51.502;6.918;2023-09-19T12:08:27;6.60;;;2.70;;
17214;SDS011;8723;51.502;6.918;2023-09-19T12:10:55;7.78;;;2.80;;
17214;SDS011;8723;51.502;6.918;2023-09-19T12:13:22;6.15;;;2.53;;
17214;SDS011;8723;51.502;6.918;2023-09-19T12:15:50;8.10;;;2.72;;
17214;SDS011;8723;51.502;6.918;2023-09-19T12:18:27;6.25;;;2.33;;
17214;SDS011;8723;51.502;6.918;2023-09-19T12:20:54;11.35;;;2.95;;
17214;SDS011;8723;51.502;6.918;2023-09-19T12:23:24;9.13;;;2.40;;
17214;SDS011;8723;51.502;6.918;2023-09-19T12:25:51;6.40;;;2.50;;
17214;SDS011;8723;51.502;6.918;2023-09-19T12:28:21;4.87;;;2.50;;
17214;SDS011;8723;51.502;6.918;2023-09-19T12:30:51;5.68;;;2.40;;
17214;SDS011;8723;51.502;6.918;2023-09-19T12:33:20;6.93;;;2.27;;
17214;SDS011;8723;51.502;6.918;2023-09-19T12:35:51;5.78;;;2.20;;
17214;SDS011;8723;51.502;6.918;2023-09-19T12:38:26;5.53;;;2.15;;
17214;SDS011;8723;51.502;6.918;2023-09-19T12:40:54;8.68;;;2.70;;
17214;SDS011;8723;51.502;6.918;2023-09-19T12:43:23;5.70;;;2.10;;
17214;SDS011;8723;51.502;6.918;2023-09-19T12:45:52;8.27;;;2.80;;
17214;SDS011;8723;51.502;6.918;2023-09-19T12:48:22;5.60;;;2.30;;
17214;SDS011;8723;51.502;6.918;2023-09-19T12:50:59;5.10;;;2.63;;
17214;SDS011;8723;51.502;6.918;2023-09-19T12:53:32;8.50;;;2.20;;
17214;SDS011;8723;51.502;6.918;2023-09-19T12:56:01;4.55;;;2.20;;
17214;SDS011;8723;51.502;6.918;2023-09-19T12:58:31;4.50;;;2.08;;
17214;SDS011;8723;51.502;6.918;2023-09-19T13:01:00;4.72;;;2.30;;
17214;SDS011;8723;51.502;6.918;2023-09-19T13:03:28;7.15;;;2.25;;
17214;SDS011;8723;51.502;6.918;2023-09-19T13:05:57;8.07;;;2.60;;
17214;SDS011;8723;51.502;6.918;2023-09-19T13:08:26;4.40;;;2.40;;
17214;SDS011;8723;51.502;6.918;2023-09-19T13:11:05;6.15;;;2.30;;
17214;SDS011;8723;51.502;6.918;2023-09-19T13:13:35;4.53;;;2.00;;
17214;SDS011;8723;51.502;6.918;2023-09-19T13:16:03;4.28;;;1.90;;
17214;SDS011;8723;51.502;6.918;2023-09-19T13:18:33;6.53;;;2.35;;
17214;SDS011;8723;51.502;6.918;2023-09-19T13:21:10;4.25;;;1.80;;
17214;SDS011;8723;51.502;6.918;2023-09-19T13:23:40;4.45;;;1.90;;
17214;SDS011;8723;51.502;6.918;2023-09-19T13:26:09;4.20;;;2.00;;
17214;SDS011;8723;51.502;6.918;2023-09-19T13:28:37;4.25;;;1.70;;
17214;SDS011;8723;51.502;6.918;2023-09-19T13:31:04;4.55;;;2.20;;
17214;SDS011;8723;51.502;6.918;2023-09-19T13:33:33;3.50;;;1.80;;
17214;SDS011;8723;51.502;6.918;2023-09-19T13:36:00;5.88;;;2.15;;
17214;SDS011;8723;51.502;6.918;2023-09-19T13:38:27;3.30;;;1.80;;
17214;SDS011;8723;51.502;6.918;2023-09-19T13:40:54;4.13;;;1.75;;
17214;SDS011;8723;51.502;6.918;2023-09-19T13:43:22;5.68;;;1.70;;
17214;SDS011;8723;51.502;6.918;2023-09-19T13:45:50;4.53;;;1.80;;
17214;SDS011;8723;51.502;6.918;2023-09-19T13:48:17;5.22;;;2.00;;
17214;SDS011;8723;51.502;6.918;2023-09-19T13:50:47;3.63;;;1.88;;
17214;SDS011;8723;51.502;6.918;2023-09-19T13:53:14;4.18;;;1.80;;
17214;SDS011;8723;51.502;6.918;2023-09-19T13:55:41;4.00;;;1.65;;
17214;SDS011;8723;51.502;6.918;2023-09-19T13:58:08;3.67;;;1.80;;
17214;SDS011;8723;51.502;6.918;2023-09-19T14:00:38;5.82;;;1.98;;
17214;SDS011;8723;51.502;6.918;2023-09-19T14:03:05;5.45;;;1.73;;
17214;SDS011;8723;51.502;6.918;2023-09-19T14:05:31;3.40;;;1.53;;
17214;SDS011;8723;51.502;6.918;2023-09-19T14:07:58;4.28;;;1.63;;
17214;SDS011;8723;51.502;6.918;2023-09-19T14:10:26;3.17;;;1.60;;
17214;SDS011;8723;51.502;6.918;2023-09-19T14:12:55;4.55;;;1.50;;
17214;SDS011;8723;51.502;6.918;2023-09-19T14:15:22;3.42;;;1.45;;
17214;SDS011;8723;51.502;6.918;2023-09-19T14:17:55;4.03;;;1.73;;
17214;SDS011;8723;51.502;6.918;2023-09-19T14:20:25;3.50;;;1.38;;
17214;SDS011;8723;51.502;6.918;2023-09-19T14:22:52;2.78;;;1.20;;
17214;SDS011;8723;51.502;6.918;2023-09-19T14:25:20;2.70;;;1.35;;
17214;SDS011;8723;51.502;6.918;2023-09-19T14:27:46;2.60;;;1.48;;
17214;SDS011;8723;51.502;6.918;2023-09-19T14:30:14;3.83;;;1.33;;
17214;SDS011;8723;51.502;6.918;2023-09-19T14:32:41;2.60;;;1.40;;
17214;SDS011;8723;51.502;6.918;2023-09-19T14:35:09;4.57;;;1.50;;
17214;SDS011;8723;51.502;6.918;2023-09-19T14:37:39;6.00;;;1.53;;
17214;SDS011;8723;51.502;6.918;2023-09-19T14:40:06;3.17;;;1.45;;
17214;SDS011;8723;51.502;6.918;2023-09-19T14:42:35;3.67;;;1.58;;
17214;SDS011;8723;51.502;6.918;2023-09-19T14:45:04;2.95;;;1.40;;
17214;SDS011;8723;51.502;6.918;2023-09-19T14:47:32;2.67;;;1.58;;
17214;SDS011;8723;51.502;6.918;2023-09-19T14:49:59;4.00;;;1.67;;
17214;SDS011;8723;51.502;6.918;2023-09-19T14:52:28;3.70;;;1.50;;
17214;SDS011;8723;51.502;6.918;2023-09-19T14:54:55;3.23;;;1.50;;
17214;SDS011;8723;51.502;6.918;2023-09-19T14:57:22;2.80;;;1.15;;
17214;SDS011;8723;51.502;6.918;2023-09-19T14:59:49;2.70;;;1.33;;
17214;SDS011;8723;51.502;6.918;2023-09-19T15:02:17;2.97;;;1.13;;
17214;SDS011;8723;51.502;6.918;2023-09-19T15:04:44;3.80;;;1.27;;
17214;SDS011;8723;51.502;6.918;2023-09-19T15:07:11;2.55;;;1.30;;
17214;SDS011;8723;51.502;6.918;2023-09-19T15:09:41;4.50;;;1.70;;
17214;SDS011;8723;51.502;6.918;2023-09-19T15:12:08;2.35;;;1.30;;
17214;SDS011;8723;51.502;6.918;2023-09-19T15:14:39;1.92;;;1.10;;
17214;SDS011;8723;51.502;6.918;2023-09-19T15:17:06;3.40;;;1.30;;
17214;SDS011;8723;51.502;6.918;2023-09-19T15:19:33;2.30;;;1.00;;
17214;SDS011;8723;51.502;6.918;2023-09-19T15:22:00;2.30;;;1.05;;
17214;SDS011;8723;51.502;6.918;2023-09-19T15:24:27;3.22;;;1.30;;
17214;SDS011;8723;51.502;6.918;2023-09-19T15:26:56;2.28;;;1.15;;
17214;SDS011;8723;51.502;6.918;2023-09-19T15:29:22;1.73;;;0.95;;
17214;SDS011;8723;51.502;6.918;2023-09-19T15:31:49;3.88;;;1.10;;
17214;SDS011;8723;51.502;6.918;2023-09-19T15:34:16;2.58;;;1.10;;
17214;SDS011;8723;51.502;6.918;2023-09-19T15:36:43;1.90;;;1.00;;
17214;SDS011;8723;51.502;6.918;2023-09-19T15:39:11;1.73;;;1.20;;